Time;durP1;ratioP1;P1;durP2;ratioP2;P2;SDS_P1;SDS_P2;PMS_P1;PMS_P2;Temp;Humidity;BMP_temperature;BMP_pressure;BME280_temperature;BME280_humidity;BME280_pressure;Samples;Min_cycle;Max_cycle;Signal;HPM_P1;HPM_P2
2021/12/01 00:02:25;;;;;;;0.50;0.50;;;;;;;4.75;43.54;98783.13;5116774;27;20295;-87
2021/12/01 00:04:51;;;;;;;2.23;0.80;;;;;;;4.88;42.87;98782.66;5135240;27;20244;-87
2021/12/01 00:07:17;;;;;;;1.17;0.47;;;;;;;5.03;43.04;98780.44;5135183;27;20581;-87
2021/12/01 00:09:43;;;;;;;0.57;0.50;;;;;;;5.15;42.95;98785.16;5135123;27;20181;-86
2021/12/01 00:12:09;;;;;;;1.10;0.63;;;;;;;5.08;42.52;98778.50;5116948;27;20175;-87
2021/12/01 00:14:34;;;;;;;0.93;0.53;;;;;;;5.07;42.62;98779.41;5116959;27;20266;-88
2021/12/01 00:17:00;;;;;;;1.57;0.80;;;;;;;4.98;42.97;98773.63;5135051;27;20188;-88
2021/12/01 00:19:25;;;;;;;1.13;0.40;;;;;;;4.95;42.50;98778.13;5135533;27;20176;-88
2021/12/01 00:21:51;;;;;;;0.57;0.53;;;;;;;4.87;42.65;98780.13;5135210;27;20268;-88
2021/12/01 00:24:16;;;;;;;0.33;0.33;;;;;;;4.98;42.45;98777.97;5134762;27;20200;-87
2021/12/01 00:26:42;;;;;;;0.40;0.30;;;;;;;5.19;42.03;98772.00;5134801;27;20237;-87
2021/12/01 00:29:07;;;;;;;0.73;0.60;;;;;;;5.20;41.99;98770.25;5116749;27;20184;-87
2021/12/01 00:31:33;;;;;;;1.17;0.73;;;;;;;5.19;41.77;98766.81;5134817;27;20621;-88
2021/12/01 00:34:01;;;;;;;0.80;0.50;;;;;;;5.44;42.00;98771.97;5116701;27;20211;-87
2021/12/01 00:36:29;;;;;;;1.50;0.80;;;;;;;5.62;41.83;98780.81;5134920;27;20263;-87
2021/12/01 00:38:55;;;;;;;0.80;0.50;;;;;;;5.71;42.05;98778.72;5134682;27;20179;-87
2021/12/01 00:41:22;;;;;;;1.03;0.47;;;;;;;5.70;42.00;98786.56;5135071;27;20269;-87
2021/12/01 00:43:47;;;;;;;0.47;0.33;;;;;;;5.50;42.16;98785.56;5116493;27;20176;-87
2021/12/01 00:46:19;;;;;;;0.50;0.40;;;;;;;5.46;42.10;98786.59;5134624;27;20175;-87
2021/12/01 00:48:44;;;;;;;1.27;0.60;;;;;;;5.35;42.60;98790.47;5116551;27;20173;-87
2021/12/01 00:51:10;;;;;;;0.60;0.40;;;;;;;5.08;43.28;98804.50;5134552;27;20175;-87
2021/12/01 00:53:36;;;;;;;1.43;0.60;;;;;;;5.08;42.93;98799.28;5116387;28;20209;-87
2021/12/01 00:56:02;;;;;;;1.67;0.80;;;;;;;5.08;42.85;98784.56;5134763;27;20171;-87
2021/12/01 00:58:27;;;;;;;0.33;0.30;;;;;;;4.98;42.84;98790.97;5134360;27;20250;-87
2021/12/01 01:00:54;;;;;;;0.57;0.40;;;;;;;5.00;42.92;98791.78;5116324;28;20200;-87
2021/12/01 01:03:20;;;;;;;1.17;0.60;;;;;;;5.08;42.98;98805.34;5134303;27;20203;-87
2021/12/01 01:05:45;;;;;;;0.43;0.40;;;;;;;5.20;43.08;98804.88;5134713;27;20169;-87
2021/12/01 01:08:11;;;;;;;1.87;0.73;;;;;;;5.20;42.84;98794.50;5134320;28;20678;-87
2021/12/01 01:18:45;;;;;;;1.30;0.57;;;;;;;5.06;42.66;98799.34;5139463;27;20167;-88
2021/12/01 01:21:11;;;;;;;2.10;1.27;;;;;;;5.06;43.12;98791.53;5138348;27;20221;-88
2021/12/01 01:23:37;;;;;;;1.03;0.63;;;;;;;5.10;43.31;98793.16;5120270;27;20187;-88
2021/12/01 01:26:06;;;;;;;1.03;0.80;;;;;;;5.05;42.84;98794.22;5138475;27;20191;-88
2021/12/01 01:28:32;;;;;;;2.67;0.93;;;;;;;4.87;43.39;98785.31;5120446;27;20303;-88
2021/12/01 01:30:58;;;;;;;1.20;0.60;;;;;;;5.04;43.16;98789.91;5138364;27;20704;-88
2021/12/01 01:33:24;;;;;;;0.67;0.50;;;;;;;5.05;42.66;98779.47;5120637;27;20174;-88
2021/12/01 01:35:50;;;;;;;0.93;0.50;;;;;;;4.94;42.96;98772.06;5138312;27;20194;-88
2021/12/01 01:38:16;;;;;;;0.67;0.40;;;;;;;4.87;43.39;98769.75;5138732;27;20171;-88
2021/12/01 01:40:42;;;;;;;0.37;0.30;;;;;;;4.85;43.45;98767.19;5138220;27;20616;-88
2021/12/01 01:43:08;;;;;;;0.87;0.40;;;;;;;4.83;43.73;98762.94;5138015;27;20191;-87
2021/12/01 01:45:34;;;;;;;0.57;0.40;;;;;;;4.67;45.06;98762.66;5138033;27;20184;-88
2021/12/01 01:48:05;;;;;;;0.40;0.40;;;;;;;4.66;44.31;98765.31;5119922;27;20571;-88
2021/12/01 01:50:36;;;;;;;2.00;0.47;;;;;;;4.65;44.91;98758.41;5138103;27;20654;-87
2021/12/01 01:53:24;;;;;;;0.87;0.77;;;;;;;4.57;44.33;98765.59;5119907;27;20250;-88
2021/12/01 01:55:58;;;;;;;2.20;0.97;;;;;;;4.51;44.06;98755.47;5138842;27;20156;-88
2021/12/01 01:58:24;;;;;;;3.60;1.03;;;;;;;4.55;43.97;98749.25;5138148;27;20586;-88
2021/12/01 02:01:08;;;;;;;7.90;1.80;;;;;;;4.40;44.38;98737.66;5137782;27;20174;-88
2021/12/01 02:03:45;;;;;;;5.37;1.27;;;;;;;4.41;44.24;98726.38;5120056;27;20167;-88
2021/12/01 02:06:13;;;;;;;1.90;1.17;;;;;;;4.39;45.22;98729.91;5138046;27;20167;-88
2021/12/01 02:08:40;;;;;;;5.87;1.60;;;;;;;4.43;44.91;98719.38;5138014;27;20186;-88
2021/12/01 02:11:12;;;;;;;4.37;1.17;;;;;;;4.50;44.73;98720.03;5137614;27;20244;-88
2021/12/01 02:13:40;;;;;;;3.83;1.73;;;;;;;4.45;45.14;98704.63;5138051;27;20635;-88
2021/12/01 02:16:07;;;;;;;1.80;0.93;;;;;;;4.36;45.18;98699.72;5137843;27;20175;-87
2021/12/01 02:18:33;;;;;;;3.90;1.73;;;;;;;4.31;45.56;98699.03;5137859;27;20202;-87
2021/12/01 02:21:01;;;;;;;6.40;1.67;;;;;;;4.18;45.71;98690.84;5137959;27;20250;-88
2021/12/01 02:23:27;;;;;;;2.83;0.67;;;;;;;3.92;47.02;98693.47;5137163;27;20187;-87
2021/12/01 02:25:52;;;;;;;1.03;0.50;;;;;;;3.96;47.43;98695.03;5118907;27;20175;-88
2021/12/01 02:28:18;;;;;;;1.40;0.90;;;;;;;3.92;47.50;98677.91;5137611;27;20182;-87
2021/12/01 02:30:43;;;;;;;2.03;0.87;;;;;;;3.80;47.92;98680.88;5137209;27;20178;-87
2021/12/01 02:33:09;;;;;;;2.13;1.13;;;;;;;3.92;47.70;98692.59;5137267;27;20232;-87
2021/12/01 02:35:34;;;;;;;3.40;1.40;;;;;;;3.84;48.43;98689.41;5118856;27;20182;-87
2021/12/01 02:38:03;;;;;;;7.43;3.43;;;;;;;3.79;48.09;98681.81;5118969;27;20210;-87
2021/12/01 02:40:28;;;;;;;10.70;1.87;;;;;;;3.82;47.35;98676.53;5137232;27;20178;-87
2021/12/01 02:42:54;;;;;;;1.83;1.00;;;;;;;3.96;46.87;98694.19;5136989;27;20195;-87
2021/12/01 02:45:19;;;;;;;3.17;1.00;;;;;;;3.93;47.12;98682.19;5136933;27;20527;-87
2021/12/01 02:47:46;;;;;;;3.60;1.27;;;;;;;3.95;46.83;98677.81;5136906;27;20250;-87
2021/12/01 02:50:11;;;;;;;4.07;1.57;;;;;;;3.84;47.43;98684.25;5118847;27;20167;-87
2021/12/01 02:52:37;;;;;;;6.00;3.17;;;;;;;4.00;47.02;98712.22;5137128;27;20177;-87
2021/12/01 02:55:08;;;;;;;4.30;1.47;;;;;;;3.98;47.20;98707.97;5137179;27;20178;-87
2021/12/01 02:57:47;;;;;;;5.17;2.17;;;;;;;3.95;46.56;98719.28;5136914;27;20171;-87
2021/12/01 03:00:14;;;;;;;0.73;0.60;;;;;;;3.98;47.17;98729.56;5137242;27;20193;-87
2021/12/01 03:02:40;;;;;;;1.67;0.70;;;;;;;3.88;47.44;98733.34;5136811;27;20215;-87
2021/12/01 03:05:07;;;;;;;0.70;0.40;;;;;;;3.93;47.07;98731.44;5136667;27;20167;-87
2021/12/01 03:07:33;;;;;;;2.00;1.13;;;;;;;3.93;46.99;98730.63;5136794;27;20620;-87
2021/12/01 03:09:59;;;;;;;0.97;0.60;;;;;;;3.91;47.64;98732.38;5136624;27;20182;-87
2021/12/01 03:12:33;;;;;;;1.67;0.73;;;;;;;3.87;47.24;98734.25;5118259;27;20179;-87
2021/12/01 03:14:59;;;;;;;1.47;0.63;;;;;;;3.96;46.97;98730.47;5136416;27;20178;-87
2021/12/01 03:17:30;;;;;;;0.70;0.57;;;;;;;3.94;47.42;98740.06;5136228;27;20245;-87
2021/12/01 03:19:56;;;;;;;1.73;0.83;;;;;;;3.76;47.58;98723.38;5136157;27;20189;-86
2021/12/01 03:22:23;;;;;;;0.87;0.70;;;;;;;3.72;47.76;98737.34;5117897;27;20201;-87
2021/12/01 03:24:49;;;;;;;0.33;0.30;;;;;;;3.76;47.79;98744.09;5136184;27;20159;-87
2021/12/01 03:27:14;;;;;;;1.97;1.00;;;;;;;3.76;47.50;98733.72;5136501;27;20276;-87
2021/12/01 03:29:40;;;;;;;1.07;0.60;;;;;;;3.74;47.87;98740.72;5136564;27;20178;-87
2021/12/01 03:32:07;;;;;;;2.57;1.30;;;;;;;3.83;47.88;98737.81;5136070;27;20526;-87
2021/12/01 03:34:34;;;;;;;1.50;0.80;;;;;;;4.00;47.17;98743.31;5136432;27;20254;-87
2021/12/01 03:37:00;;;;;;;1.00;0.90;;;;;;;4.08;47.50;98736.16;5135520;27;20244;-87
2021/12/01 03:39:25;;;;;;;1.30;0.87;;;;;;;4.14;46.99;98748.88;5117795;27;20171;-87
2021/12/01 03:41:51;;;;;;;1.70;0.90;;;;;;;4.15;46.42;98737.63;5117564;27;20199;-87
2021/12/01 03:44:17;;;;;;;2.10;0.70;;;;;;;4.21;46.79;98734.84;5136039;27;20176;-87
2021/12/01 03:46:42;;;;;;;2.93;1.93;;;;;;;4.21;46.89;98744.38;5117675;27;20526;-87
2021/12/01 03:49:08;;;;;;;7.53;2.93;;;;;;;4.21;47.15;98747.81;5135644;27;20182;-87
2021/12/01 03:51:33;;;;;;;9.43;1.80;;;;;;;4.23;46.67;98740.81;5136144;27;20187;-87
2021/12/01 03:53:59;;;;;;;12.30;2.77;;;;;;;4.18;47.07;98721.97;5135770;27;20175;-87
2021/12/01 03:56:25;;;;;;;3.63;1.67;;;;;;;4.14;47.33;98740.28;5135458;27;20636;-87
2021/12/01 03:58:50;;;;;;;2.07;1.00;;;;;;;4.09;46.87;98743.00;5135653;27;20231;-87
2021/12/01 04:01:16;;;;;;;2.67;1.13;;;;;;;3.92;47.24;98737.53;5135933;27;20170;-87
2021/12/01 04:03:42;;;;;;;3.80;0.60;;;;;;;3.94;47.55;98747.84;5135469;27;20578;-87
2021/12/01 04:06:07;;;;;;;1.57;1.13;;;;;;;4.03;47.62;98742.38;5117339;27;20181;-87
2021/12/01 04:08:34;;;;;;;5.50;0.97;;;;;;;4.00;48.03;98740.72;5135290;27;20251;-87
2021/12/01 04:10:59;;;;;;;2.43;0.70;;;;;;;3.99;48.03;98752.00;5117114;27;20172;-87
2021/12/01 04:13:25;;;;;;;2.53;0.70;;;;;;;4.02;47.49;98744.13;5135495;27;20312;-87
2021/12/01 04:15:50;;;;;;;0.50;0.40;;;;;;;4.06;47.71;98739.69;5135187;27;20328;-87
2021/12/01 04:18:16;;;;;;;1.27;0.70;;;;;;;3.97;47.59;98756.38;5135090;27;20175;-87
2021/12/01 04:20:42;;;;;;;1.17;0.77;;;;;;;4.05;48.12;98751.81;5135204;27;20171;-87
2021/12/01 04:23:07;;;;;;;2.80;1.10;;;;;;;4.08;48.13;98748.25;5116595;27;20221;-87
2021/12/01 04:25:33;;;;;;;1.17;0.80;;;;;;;4.04;47.11;98751.84;5116777;27;20193;-87
2021/12/01 04:27:59;;;;;;;1.33;0.77;;;;;;;4.16;47.62;98752.31;5135213;27;20175;-87
2021/12/01 04:30:26;;;;;;;10.60;2.40;;;;;;;4.29;46.88;98751.00;5134811;27;20171;-87
2021/12/01 04:32:53;;;;;;;2.70;1.37;;;;;;;4.34;45.92;98743.91;5116709;27;20210;-87
2021/12/01 04:35:20;;;;;;;1.97;1.07;;;;;;;4.37;45.84;98747.28;5135090;27;20197;-87
2021/12/01 04:37:48;;;;;;;2.23;0.90;;;;;;;4.41;45.64;98764.44;5134648;27;20166;-87
2021/12/01 04:40:13;;;;;;;0.90;0.50;;;;;;;4.47;46.42;98749.53;5134853;27;20178;-87
2021/12/01 04:42:39;;;;;;;1.53;1.13;;;;;;;4.51;46.14;98745.09;5134644;27;20194;-87
2021/12/01 04:45:14;;;;;;;5.47;1.87;;;;;;;4.56;45.79;98759.56;5134876;27;20171;-87
2021/12/01 04:47:42;;;;;;;4.40;1.37;;;;;;;4.37;46.57;98742.94;5135093;27;20627;-87
2021/12/01 04:50:08;;;;;;;3.33;1.53;;;;;;;4.40;46.84;98753.22;5134593;27;20167;-87
2021/12/01 04:52:34;;;;;;;5.13;1.67;;;;;;;4.49;46.59;98746.84;5135105;27;20206;-87
2021/12/01 04:54:59;;;;;;;1.60;0.90;;;;;;;4.61;45.66;98743.84;5134549;27;20226;-87
2021/12/01 04:57:25;;;;;;;2.40;0.77;;;;;;;4.66;45.57;98745.41;5134769;27;20175;-87
2021/12/01 04:59:50;;;;;;;3.03;1.17;;;;;;;4.71;45.43;98755.59;5116749;27;20635;-87
2021/12/01 05:02:16;;;;;;;4.87;1.10;;;;;;;4.76;45.75;98751.09;5116356;27;20190;-87
2021/12/01 05:04:42;;;;;;;13.07;4.13;;;;;;;4.85;44.42;98753.34;5116505;27;20179;-87
2021/12/01 05:07:09;;;;;;;12.33;3.50;;;;;;;4.72;44.34;98754.69;5116323;28;20235;-87
2021/12/01 05:09:36;;;;;;;2.63;1.53;;;;;;;4.70;44.74;98746.13;5116195;28;20190;-87
2021/12/01 05:12:02;;;;;;;3.20;2.10;;;;;;;4.68;44.65;98727.16;5116276;28;20198;-87
2021/12/01 05:14:28;;;;;;;2.07;1.00;;;;;;;4.71;44.45;98720.13;5116294;28;20210;-87
2021/12/01 05:16:55;;;;;;;6.93;2.37;;;;;;;4.84;44.07;98739.53;5134592;28;20170;-87
2021/12/01 05:19:21;;;;;;;3.27;1.37;;;;;;;4.85;43.91;98746.41;5134587;28;20168;-87
2021/12/01 05:21:46;;;;;;;6.10;1.30;;;;;;;4.75;44.04;98739.00;5134424;28;20193;-87
2021/12/01 05:24:12;;;;;;;0.60;0.40;;;;;;;4.66;44.07;98739.34;5134117;28;20174;-87
2021/12/01 05:26:39;;;;;;;5.07;1.10;;;;;;;4.76;43.88;98748.50;5134235;28;20163;-87
2021/12/01 05:29:05;;;;;;;3.20;0.90;;;;;;;4.70;44.57;98741.78;5134503;28;20493;-87
2021/12/01 05:31:31;;;;;;;1.33;0.73;;;;;;;4.67;44.28;98728.03;5116190;28;20537;-87
2021/12/01 05:33:57;;;;;;;0.80;0.73;;;;;;;4.62;44.11;98738.59;5134285;28;20167;-87
2021/12/01 05:36:23;;;;;;;2.50;1.07;;;;;;;4.72;43.92;98733.91;5116075;28;20243;-87
2021/12/01 05:38:48;;;;;;;0.67;0.43;;;;;;;4.62;44.55;98737.75;5134687;28;20181;-87
2021/12/01 05:41:14;;;;;;;2.47;0.90;;;;;;;4.71;44.41;98755.59;5134263;28;20284;-87
2021/12/01 05:43:41;;;;;;;2.27;1.20;;;;;;;4.66;45.26;98757.53;5116027;28;20613;-87
2021/12/01 05:46:06;;;;;;;1.87;0.90;;;;;;;4.73;44.98;98756.41;5134341;28;20171;-87
2021/12/01 05:48:32;;;;;;;0.90;0.63;;;;;;;4.74;45.69;98752.91;5134111;28;20182;-87
2021/12/01 05:50:57;;;;;;;2.53;1.43;;;;;;;4.81;45.47;98756.97;5133998;28;20163;-87
2021/12/01 05:53:23;;;;;;;2.47;1.13;;;;;;;4.77;45.25;98752.81;5134290;28;20191;-87
2021/12/01 05:55:48;;;;;;;4.87;1.80;;;;;;;4.75;46.03;98749.41;5134019;28;20640;-87
2021/12/01 05:58:14;;;;;;;2.80;1.30;;;;;;;4.88;45.48;98748.91;5115879;27;20582;-87
2021/12/01 06:00:40;;;;;;;3.67;1.13;;;;;;;4.81;44.82;98752.63;5137738;27;20174;-87
2021/12/01 06:03:05;;;;;;;3.30;1.30;;;;;;;4.92;44.69;98745.31;5137746;27;20195;-87
2021/12/01 06:05:31;;;;;;;4.93;2.30;;;;;;;5.05;44.83;98748.31;5137755;27;20193;-87
2021/12/01 06:07:57;;;;;;;2.10;1.13;;;;;;;5.09;44.19;98757.66;5138177;27;20178;-87
2021/12/01 06:10:22;;;;;;;4.67;2.80;;;;;;;5.12;43.90;98756.72;5119566;27;20184;-87
2021/12/01 06:12:48;;;;;;;2.93;1.17;;;;;;;5.17;44.68;98760.84;5137544;27;20237;-87
2021/12/01 06:15:16;;;;;;;4.93;1.60;;;;;;;5.26;44.21;98757.91;5137517;27;20644;-87
2021/12/01 06:17:42;;;;;;;3.33;1.63;;;;;;;5.20;44.32;98758.13;5137401;27;20168;-87
2021/12/01 06:20:09;;;;;;;4.93;1.73;;;;;;;5.23;44.20;98758.00;5137598;27;20231;-87
2021/12/01 06:22:35;;;;;;;3.00;1.67;;;;;;;5.38;44.11;98760.03;5119683;27;20275;-87
2021/12/01 06:25:00;;;;;;;4.17;1.67;;;;;;;5.49;43.91;98757.03;5137368;27;20675;-87
2021/12/01 06:27:26;;;;;;;3.27;1.30;;;;;;;5.62;43.76;98750.44;5137363;27;20168;-87
2021/12/01 06:29:53;;;;;;;4.60;1.73;;;;;;;5.85;44.11;98750.44;5137334;27;20653;-87
2021/12/01 06:32:18;;;;;;;3.23;1.20;;;;;;;6.28;43.25;98761.72;5137143;27;20564;-87
2021/12/01 06:34:44;;;;;;;4.17;1.33;;;;;;;6.84;41.72;98762.75;5137524;27;20169;-87
2021/12/01 06:37:09;;;;;;;0.87;0.50;;;;;;;7.28;40.69;98752.97;5137161;27;20182;-87
2021/12/01 06:39:35;;;;;;;2.63;1.07;;;;;;;7.67;40.15;98745.91;5137132;27;20182;-87
2021/12/01 06:42:00;;;;;;;1.73;1.10;;;;;;;7.90;39.16;98750.88;5119071;27;20202;-87
2021/12/01 06:44:30;;;;;;;1.07;0.83;;;;;;;8.12;38.20;98758.53;5137316;27;20515;-87
2021/12/01 06:46:55;;;;;;;3.43;1.30;;;;;;;8.31;38.87;98764.56;5136881;27;20175;-87
2021/12/01 06:49:21;;;;;;;5.83;1.10;;;;;;;8.44;38.71;98752.56;5137059;27;20171;-87
2021/12/01 06:51:47;;;;;;;3.47;1.07;;;;;;;8.87;38.14;98763.47;5118756;27;20601;-87
2021/12/01 06:54:13;;;;;;;1.40;0.80;;;;;;;9.44;37.46;98755.16;5137107;27;20163;-86
2021/12/01 06:56:38;;;;;;;2.13;0.87;;;;;;;9.98;36.38;98746.06;5136970;27;20170;-87
2021/12/01 06:59:04;;;;;;;2.00;1.20;;;;;;;10.90;34.97;98743.25;5136890;27;20599;-87
2021/12/01 07:01:29;;;;;;;1.40;1.00;;;;;;;11.55;34.06;98736.59;5136698;27;20666;-87
2021/12/01 07:03:55;;;;;;;2.63;0.70;;;;;;;11.60;33.26;98747.66;5137177;27;20246;-87
2021/12/01 07:06:20;;;;;;;4.07;1.33;;;;;;;11.44;33.85;98761.81;5118580;27;20583;-87
2021/12/01 07:08:46;;;;;;;3.67;1.13;;;;;;;11.05;33.61;98757.22;5118587;27;20241;-87
2021/12/01 07:11:11;;;;;;;6.60;1.60;;;;;;;10.88;33.58;98757.38;5135702;27;20541;-87
2021/12/01 07:13:37;;;;;;;1.87;1.00;;;;;;;10.46;34.35;98758.13;5136831;27;20168;-87
2021/12/01 07:16:03;;;;;;;5.53;1.10;;;;;;;10.30;34.89;98747.69;5118365;27;20268;-87
2021/12/01 07:18:28;;;;;;;2.33;1.03;;;;;;;10.12;35.11;98750.50;5118228;27;20206;-87
2021/12/01 07:20:54;;;;;;;3.53;1.63;;;;;;;9.67;35.58;98751.31;5136265;27;20246;-87
2021/12/01 07:23:19;;;;;;;3.87;1.03;;;;;;;9.62;36.25;98754.16;5117958;27;20219;-87
2021/12/01 07:25:45;;;;;;;6.20;0.93;;;;;;;9.41;35.50;98757.13;5118024;27;20176;-87
2021/12/01 07:28:11;;;;;;;2.10;0.93;;;;;;;9.19;35.41;98752.19;5136684;27;20216;-87
2021/12/01 07:30:39;;;;;;;2.10;0.80;;;;;;;9.14;35.58;98757.66;5136154;27;20178;-87
2021/12/01 07:33:07;;;;;;;2.27;0.70;;;;;;;9.11;36.54;98773.50;5136220;27;20281;-86
2021/12/01 07:35:33;;;;;;;1.23;0.60;;;;;;;9.13;36.89;98766.41;5136233;27;20174;-87
2021/12/01 07:37:59;;;;;;;1.73;0.97;;;;;;;9.33;37.03;98777.59;5117876;27;20275;-87
2021/12/01 07:40:24;;;;;;;1.50;0.60;;;;;;;9.54;37.38;98758.16;5135986;27;20207;-87
2021/12/01 07:42:51;;;;;;;1.70;0.77;;;;;;;9.65;36.53;98767.09;5136145;27;20305;-87
2021/12/01 07:45:16;;;;;;;1.43;0.60;;;;;;;9.80;35.78;98762.78;5117841;27;20186;-87
2021/12/01 07:47:42;;;;;;;2.13;0.70;;;;;;;9.99;35.78;98765.22;5135661;27;20249;-87
2021/12/01 07:50:08;;;;;;;2.63;0.77;;;;;;;10.10;35.39;98761.06;5117706;27;20258;-87
2021/12/01 07:52:35;;;;;;;1.77;0.70;;;;;;;10.30;35.69;98768.66;5136175;27;20170;-87
2021/12/01 07:55:02;;;;;;;0.57;0.40;;;;;;;10.39;35.45;98757.66;5136033;27;20669;-87
2021/12/01 07:57:28;;;;;;;0.60;0.40;;;;;;;10.45;34.17;98756.47;5135572;27;20175;-87
2021/12/01 07:59:53;;;;;;;0.20;0.20;;;;;;;10.42;33.84;98752.25;5117479;27;20179;-86
2021/12/01 08:02:18;;;;;;;0.73;0.30;;;;;;;10.46;34.08;98743.25;5135547;27;20217;-87
2021/12/01 08:04:44;;;;;;;0.30;0.20;;;;;;;10.61;33.97;98761.66;5135910;27;20221;-87
2021/12/01 08:07:09;;;;;;;1.10;0.40;;;;;;;10.75;34.25;98766.91;5117170;27;20179;-87
2021/12/01 08:09:36;;;;;;;0.87;0.50;;;;;;;10.87;34.74;98758.34;5135905;27;20695;-87
2021/12/01 08:12:02;;;;;;;1.20;0.43;;;;;;;10.90;33.91;98755.53;5135605;27;20265;-87
2021/12/01 08:14:27;;;;;;;0.60;0.30;;;;;;;11.14;33.78;98755.84;5117046;27;20274;-87
2021/12/01 08:16:53;;;;;;;0.30;0.20;;;;;;;11.20;34.24;98751.06;5135274;27;20171;-87
2021/12/01 08:19:19;;;;;;;0.63;0.37;;;;;;;11.03;34.88;98759.13;5135058;27;20171;-89
2021/12/01 08:21:49;;;;;;;1.40;0.40;;;;;;;11.17;34.52;98751.22;5116623;27;20203;-87
2021/12/01 08:24:15;;;;;;;0.97;0.53;;;;;;;11.35;34.24;98765.84;5135510;27;20223;-87
2021/12/01 08:26:42;;;;;;;1.03;0.57;;;;;;;11.48;34.57;98772.03;5135264;27;20179;-87
2021/12/01 08:29:08;;;;;;;3.13;0.83;;;;;;;11.50;34.63;98751.78;5116972;27;20175;-86
2021/12/01 08:31:34;;;;;;;2.20;0.60;;;;;;;11.69;34.95;98754.13;5116766;27;20177;-87
2021/12/01 08:34:00;;;;;;;2.33;0.33;;;;;;;11.85;34.03;98746.09;5134904;27;20170;-87
2021/12/01 08:36:26;;;;;;;0.50;0.30;;;;;;;11.88;34.03;98738.03;5134851;27;20263;-87
2021/12/01 08:38:51;;;;;;;0.90;0.40;;;;;;;11.95;34.11;98729.66;5116692;27;20210;-87
2021/12/01 08:41:17;;;;;;;0.97;0.50;;;;;;;12.21;34.30;98741.94;5134811;27;20256;-87
2021/12/01 08:43:42;;;;;;;0.80;0.53;;;;;;;12.27;35.10;98732.81;5134763;27;20583;-86
2021/12/01 08:46:09;;;;;;;1.67;0.63;;;;;;;12.23;34.78;98726.94;5116762;27;20635;-86
2021/12/01 08:48:36;;;;;;;4.73;1.00;;;;;;;12.36;34.64;98734.88;5134812;27;20199;-86
2021/12/01 08:51:03;;;;;;;2.27;0.30;;;;;;;12.49;34.42;98735.72;5134544;27;20618;-86
2021/12/01 08:53:30;;;;;;;3.90;0.70;;;;;;;12.72;33.97;98729.78;5116508;27;20597;-88
2021/12/01 08:55:57;;;;;;;2.10;0.87;;;;;;;12.30;34.00;98730.84;5134436;27;20636;-86
2021/12/01 08:58:23;;;;;;;1.10;0.47;;;;;;;12.33;34.55;98730.66;5116291;27;20252;-88
2021/12/01 09:00:49;;;;;;;1.30;0.60;;;;;;;12.49;34.00;98724.38;5116289;27;20618;-88
2021/12/01 09:03:16;;;;;;;1.67;0.67;;;;;;;12.55;34.17;98714.28;5134388;27;20192;-85
2021/12/01 09:05:44;;;;;;;3.30;1.03;;;;;;;12.29;34.86;98726.53;5116131;27;20268;-87
2021/12/01 09:08:10;;;;;;;1.07;0.50;;;;;;;12.54;33.65;98717.00;5134352;27;20531;-86
2021/12/01 09:10:35;;;;;;;1.40;0.47;;;;;;;12.27;34.93;98724.94;5116243;28;20267;-90
2021/12/01 09:13:03;;;;;;;0.70;0.30;;;;;;;12.24;35.09;98731.25;5134278;28;20166;-86
2021/12/01 09:15:28;;;;;;;0.97;0.50;;;;;;;12.52;35.17;98719.75;5116164;28;20192;-87
2021/12/01 09:17:54;;;;;;;1.03;0.47;;;;;;;12.53;35.25;98734.56;5134300;28;20169;-88
2021/12/01 09:20:20;;;;;;;0.53;0.30;;;;;;;12.46;34.83;98730.69;5116157;28;20693;-90
2021/12/01 09:22:45;;;;;;;1.70;0.60;;;;;;;12.72;34.64;98732.41;5134148;28;20678;-89
2021/12/01 09:25:11;;;;;;;0.33;0.33;;;;;;;13.07;34.75;98737.06;5134660;28;20173;-89
2021/12/01 09:27:37;;;;;;;0.87;0.47;;;;;;;13.22;34.92;98739.50;5134181;28;20202;-87
2021/12/01 09:30:05;;;;;;;1.90;0.40;;;;;;;13.15;34.51;98732.97;5134718;28;20167;-86
2021/12/01 09:32:34;;;;;;;0.20;0.20;;;;;;;13.19;34.78;98734.44;5134132;28;20248;-87
2021/12/01 09:35:01;;;;;;;0.77;0.27;;;;;;;13.47;35.22;98730.69;5118328;27;20182;-88
2021/12/01 09:37:26;;;;;;;0.90;0.47;;;;;;;13.55;35.12;98723.94;5120360;27;20181;-88
2021/12/01 09:39:52;;;;;;;0.80;0.50;;;;;;;13.51;34.46;98726.91;5120042;27;20194;-86
2021/12/01 09:42:18;;;;;;;0.63;0.50;;;;;;;13.55;34.46;98713.41;5120353;27;20650;-87
2021/12/01 09:44:43;;;;;;;1.00;0.30;;;;;;;13.51;34.43;98721.66;5120406;27;20174;-86
2021/12/01 09:47:09;;;;;;;0.37;0.20;;;;;;;13.53;35.11;98709.22;5138332;27;20174;-87
2021/12/01 09:49:35;;;;;;;0.33;0.30;;;;;;;13.89;34.71;98705.72;5138287;27;20211;-86
2021/12/01 09:52:00;;;;;;;1.40;0.37;;;;;;;14.12;34.28;98703.06;5138154;27;20181;-86
2021/12/01 09:54:26;;;;;;;1.83;0.60;;;;;;;14.11;34.35;98705.84;5138426;27;20255;-86
2021/12/01 09:56:51;;;;;;;1.17;0.50;;;;;;;14.28;34.52;98691.41;5121366;27;20178;-87
2021/12/01 09:59:17;;;;;;;4.57;0.73;;;;;;;14.44;34.58;98684.06;5138503;27;20253;-88
2021/12/01 10:01:43;;;;;;;0.83;0.43;;;;;;;14.25;34.61;98681.09;5120450;27;20202;-85
2021/12/01 10:04:09;;;;;;;0.80;0.40;;;;;;;14.06;34.55;98677.19;5138234;27;20176;-87
2021/12/01 10:06:35;;;;;;;0.83;0.70;;;;;;;14.27;35.32;98680.03;5138171;27;20189;-86
2021/12/01 10:09:04;;;;;;;0.63;0.30;;;;;;;14.46;34.78;98684.78;5119903;27;20212;-86
2021/12/01 10:11:40;;;;;;;0.70;0.37;;;;;;;14.37;35.38;98669.66;5138584;27;20228;-87
2021/12/01 10:14:24;;;;;;;0.83;0.43;;;;;;;14.30;35.30;98673.69;5119851;27;20202;-86
2021/12/01 10:16:54;;;;;;;0.40;0.20;;;;;;;14.39;34.60;98665.09;5137955;27;20172;-85
2021/12/01 10:19:20;;;;;;;0.30;0.20;;;;;;;14.30;34.73;98665.78;5137556;27;20189;-89
2021/12/01 10:21:51;;;;;;;0.30;0.20;;;;;;;14.10;34.93;98662.81;5120083;27;20303;-88
2021/12/01 10:24:23;;;;;;;0.23;0.17;;;;;;;14.33;34.29;98668.22;5119510;27;20692;-90
2021/12/01 10:27:00;;;;;;;0.73;0.50;;;;;;;14.42;34.59;98664.88;5137740;27;20164;-85
2021/12/01 10:29:39;;;;;;;0.40;0.20;;;;;;;14.30;34.56;98657.88;5137607;27;20165;-88
2021/12/01 10:32:07;;;;;;;0.50;0.30;;;;;;;14.75;34.80;98649.13;5137750;27;20520;-85
2021/12/01 10:34:39;;;;;;;0.23;0.20;;;;;;;14.71;34.49;98656.44;5137503;27;20192;-86
2021/12/01 10:37:10;;;;;;;0.27;0.20;;;;;;;14.49;34.62;98655.56;5137228;27;20175;-85
2021/12/01 10:39:38;;;;;;;2.00;0.40;;;;;;;14.45;34.42;98656.72;5136953;27;20592;-87
2021/12/01 10:42:09;;;;;;;1.73;0.53;;;;;;;14.60;34.51;98655.56;5119799;27;20195;-88
2021/12/01 10:44:35;;;;;;;0.13;0.13;;;;;;;14.77;34.33;98652.47;5118988;27;20184;-89
2021/12/01 10:47:11;;;;;;;2.00;0.37;;;;;;;15.05;34.40;98659.91;5136971;27;20552;-88
2021/12/01 10:49:44;;;;;;;0.40;0.30;;;;;;;15.14;33.55;98659.22;5118932;27;20172;-88
2021/12/01 10:52:29;;;;;;;0.83;0.20;;;;;;;15.42;34.04;98662.28;5137763;27;20163;-87
2021/12/01 10:55:13;;;;;;;0.40;0.20;;;;;;;15.53;33.52;98659.69;5118690;27;20541;-88
2021/12/01 10:57:48;;;;;;;0.60;0.37;;;;;;;15.84;33.52;98662.38;5118775;27;20170;-88
2021/12/01 11:00:24;;;;;;;1.57;0.30;;;;;;;15.88;32.54;98655.84;5137358;27;20198;-86
2021/12/01 11:03:03;;;;;;;0.83;0.40;;;;;;;16.05;33.22;98665.06;5118659;27;20232;-88
2021/12/01 11:05:40;;;;;;;0.47;0.30;;;;;;;16.15;32.32;98658.03;5136812;27;20173;-89
2021/12/01 11:08:09;;;;;;;1.80;0.90;;;;;;;15.76;33.02;98656.00;5136838;27;20166;-86
2021/12/01 11:10:35;;;;;;;0.40;0.30;;;;;;;15.39;33.34;98655.47;5136459;27;20242;-86
2021/12/01 11:13:02;;;;;;;1.07;0.43;;;;;;;15.49;33.82;98658.25;5118624;27;20168;-87
2021/12/01 11:15:37;;;;;;;0.37;0.20;;;;;;;15.32;33.39;98663.03;5118228;27;20183;-89
2021/12/01 11:18:04;;;;;;;0.37;0.20;;;;;;;15.49;33.75;98642.41;5137066;27;20224;-88
2021/12/01 11:20:52;;;;;;;1.53;0.40;;;;;;;15.31;33.57;98642.03;5136876;27;20200;-88
2021/12/01 11:23:25;;;;;;;0.67;0.37;;;;;;;15.00;34.03;98646.25;5136498;27;20204;-88
2021/12/01 11:25:56;;;;;;;0.73;0.30;;;;;;;15.16;33.82;98628.25;5136916;27;20256;-87
2021/12/01 11:28:27;;;;;;;3.83;0.47;;;;;;;14.79;34.21;98629.44;5136657;27;20165;-88
2021/12/01 11:30:56;;;;;;;1.10;0.40;;;;;;;14.84;33.94;98634.34;5118221;27;20578;-91
2021/12/01 11:33:23;;;;;;;1.20;0.40;;;;;;;15.07;34.33;98631.59;5136281;27;20171;-86
2021/12/01 11:36:01;;;;;;;0.40;0.20;;;;;;;15.02;34.13;98628.47;5135913;27;20188;-88
2021/12/01 11:38:28;;;;;;;0.10;0.10;;;;;;;15.22;33.75;98626.94;5136217;27;20163;-87
2021/12/01 11:40:55;;;;;;;0.73;0.50;;;;;;;15.27;33.62;98630.88;5136398;27;20184;-88
2021/12/01 11:43:24;;;;;;;0.50;0.30;;;;;;;15.54;33.19;98625.19;5117813;27;20560;-88
2021/12/01 11:45:50;;;;;;;0.20;0.20;;;;;;;15.25;33.38;98627.50;5135860;27;20250;-87
2021/12/01 11:48:21;;;;;;;0.63;0.40;;;;;;;15.54;33.76;98637.59;5117715;27;20295;-87